sensor_id;sensor_type;location;lat;lon;timestamp;P1;durP1;ratioP1;P2;durP2;ratioP2
7573;SDS011;3828;48.922;9.116;2023-11-19T00:02:02;1.40;;;1.40;;
7573;SDS011;3828;48.922;9.116;2023-11-19T00:04:29;1.30;;;1.30;;
7573;SDS011;3828;48.922;9.116;2023-11-19T00:06:56;1.40;;;1.40;;
7573;SDS011;3828;48.922;9.116;2023-11-19T00:09:28;1.40;;;1.40;;
7573;SDS011;3828;48.922;9.116;2023-11-19T00:11:55;1.43;;;1.43;;
7573;SDS011;3828;48.922;9.116;2023-11-19T00:14:24;1.27;;;1.27;;
7573;SDS011;3828;48.922;9.116;2023-11-19T00:16:51;1.20;;;1.20;;
7573;SDS011;3828;48.922;9.116;2023-11-19T00:19:18;1.30;;;1.30;;
7573;SDS011;3828;48.922;9.116;2023-11-19T00:21:46;1.20;;;1.20;;
7573;SDS011;3828;48.922;9.116;2023-11-19T00:24:13;1.20;;;1.20;;
7573;SDS011;3828;48.922;9.116;2023-11-19T00:26:41;1.30;;;1.30;;
7573;SDS011;3828;48.922;9.116;2023-11-19T00:29:08;1.10;;;1.10;;
7573;SDS011;3828;48.922;9.116;2023-11-19T00:31:37;1.33;;;1.33;;
7573;SDS011;3828;48.922;9.116;2023-11-19T00:34:04;1.40;;;1.40;;
7573;SDS011;3828;48.922;9.116;2023-11-19T00:36:31;1.30;;;1.30;;
7573;SDS011;3828;48.922;9.116;2023-11-19T00:38:58;1.30;;;1.30;;
7573;SDS011;3828;48.922;9.116;2023-11-19T00:41:25;1.30;;;1.30;;
7573;SDS011;3828;48.922;9.116;2023-11-19T00:43:52;1.20;;;1.20;;
7573;SDS011;3828;48.922;9.116;2023-11-19T00:46:20;1.23;;;1.23;;
7573;SDS011;3828;48.922;9.116;2023-11-19T00:48:49;1.30;;;1.30;;
7573;SDS011;3828;48.922;9.116;2023-11-19T00:51:15;1.30;;;1.30;;
7573;SDS011;3828;48.922;9.116;2023-11-19T00:53:42;1.30;;;1.30;;
7573;SDS011;3828;48.922;9.116;2023-11-19T00:56:10;1.20;;;1.20;;
7573;SDS011;3828;48.922;9.116;2023-11-19T00:58:38;1.30;;;1.30;;
7573;SDS011;3828;48.922;9.116;2023-11-19T01:01:05;1.20;;;1.20;;
7573;SDS011;3828;48.922;9.116;2023-11-19T01:03:32;1.20;;;1.20;;
7573;SDS011;3828;48.922;9.116;2023-11-19T01:06:01;1.10;;;1.10;;
7573;SDS011;3828;48.922;9.116;2023-11-19T01:08:28;1.10;;;1.10;;
7573;SDS011;3828;48.922;9.116;2023-11-19T01:10:55;1.20;;;1.20;;
7573;SDS011;3828;48.922;9.116;2023-11-19T01:13:22;1.20;;;1.20;;
7573;SDS011;3828;48.922;9.116;2023-11-19T01:15:49;1.20;;;1.20;;
7573;SDS011;3828;48.922;9.116;2023-11-19T01:18:16;1.10;;;1.10;;
7573;SDS011;3828;48.922;9.116;2023-11-19T01:20:43;1.30;;;1.30;;
7573;SDS011;3828;48.922;9.116;2023-11-19T01:23:12;1.10;;;1.10;;
7573;SDS011;3828;48.922;9.116;2023-11-19T01:25:39;1.40;;;1.40;;
7573;SDS011;3828;48.922;9.116;2023-11-19T01:28:06;1.20;;;1.20;;
7573;SDS011;3828;48.922;9.116;2023-11-19T01:30:33;1.33;;;1.33;;
7573;SDS011;3828;48.922;9.116;2023-11-19T01:33:00;1.50;;;1.50;;
7573;SDS011;3828;48.922;9.116;2023-11-19T01:35:29;1.20;;;1.20;;
7573;SDS011;3828;48.922;9.116;2023-11-19T01:37:55;1.63;;;1.63;;
7573;SDS011;3828;48.922;9.116;2023-11-19T01:40:24;1.30;;;1.30;;
7573;SDS011;3828;48.922;9.116;2023-11-19T01:42:51;1.20;;;1.20;;
7573;SDS011;3828;48.922;9.116;2023-11-19T01:45:21;1.20;;;1.20;;
7573;SDS011;3828;48.922;9.116;2023-11-19T01:47:55;1.00;;;1.00;;
7573;SDS011;3828;48.922;9.116;2023-11-19T01:50:23;1.10;;;1.10;;
7573;SDS011;3828;48.922;9.116;2023-11-19T01:52:50;1.00;;;1.00;;
7573;SDS011;3828;48.922;9.116;2023-11-19T01:55:17;1.30;;;1.30;;
7573;SDS011;3828;48.922;9.116;2023-11-19T01:57:46;1.10;;;1.10;;
7573;SDS011;3828;48.922;9.116;2023-11-19T02:00:14;1.30;;;1.30;;
7573;SDS011;3828;48.922;9.116;2023-11-19T02:02:42;1.40;;;1.40;;
7573;SDS011;3828;48.922;9.116;2023-11-19T02:05:10;1.23;;;1.23;;
7573;SDS011;3828;48.922;9.116;2023-11-19T02:07:38;1.30;;;1.30;;
7573;SDS011;3828;48.922;9.116;2023-11-19T02:10:05;1.20;;;1.20;;
7573;SDS011;3828;48.922;9.116;2023-11-19T02:12:32;1.20;;;1.20;;
7573;SDS011;3828;48.922;9.116;2023-11-19T02:15:02;1.27;;;1.27;;
7573;SDS011;3828;48.922;9.116;2023-11-19T02:17:29;1.10;;;1.10;;
7573;SDS011;3828;48.922;9.116;2023-11-19T02:19:57;1.20;;;1.20;;
7573;SDS011;3828;48.922;9.116;2023-11-19T02:22:24;1.23;;;1.23;;
7573;SDS011;3828;48.922;9.116;2023-11-19T02:24:53;1.20;;;1.20;;
7573;SDS011;3828;48.922;9.116;2023-11-19T02:27:26;1.17;;;1.17;;
7573;SDS011;3828;48.922;9.116;2023-11-19T02:30:00;1.10;;;1.10;;
7573;SDS011;3828;48.922;9.116;2023-11-19T02:32:31;1.30;;;1.30;;
7573;SDS011;3828;48.922;9.116;2023-11-19T02:34:58;1.17;;;1.17;;
7573;SDS011;3828;48.922;9.116;2023-11-19T02:37:25;1.57;;;1.57;;
7573;SDS011;3828;48.922;9.116;2023-11-19T02:39:53;1.20;;;1.20;;
7573;SDS011;3828;48.922;9.116;2023-11-19T02:42:20;1.50;;;1.50;;
7573;SDS011;3828;48.922;9.116;2023-11-19T02:44:47;1.20;;;1.20;;
7573;SDS011;3828;48.922;9.116;2023-11-19T02:47:16;1.60;;;1.60;;
7573;SDS011;3828;48.922;9.116;2023-11-19T02:49:44;1.20;;;1.20;;
7573;SDS011;3828;48.922;9.116;2023-11-19T02:52:11;1.50;;;1.50;;
7573;SDS011;3828;48.922;9.116;2023-11-19T02:54:39;1.30;;;1.30;;
7573;SDS011;3828;48.922;9.116;2023-11-19T02:57:07;1.30;;;1.30;;
7573;SDS011;3828;48.922;9.116;2023-11-19T02:59:35;1.10;;;1.10;;
7573;SDS011;3828;48.922;9.116;2023-11-19T03:02:08;1.30;;;1.30;;
7573;SDS011;3828;48.922;9.116;2023-11-19T03:04:38;1.23;;;1.23;;
7573;SDS011;3828;48.922;9.116;2023-11-19T03:07:05;1.20;;;1.20;;
7573;SDS011;3828;48.922;9.116;2023-11-19T03:09:33;1.20;;;1.20;;
7573;SDS011;3828;48.922;9.116;2023-11-19T03:12:00;1.27;;;1.27;;
7573;SDS011;3828;48.922;9.116;2023-11-19T03:14:27;1.20;;;1.20;;
7573;SDS011;3828;48.922;9.116;2023-11-19T03:16:54;1.20;;;1.20;;
7573;SDS011;3828;48.922;9.116;2023-11-19T03:19:22;1.20;;;1.20;;
7573;SDS011;3828;48.922;9.116;2023-11-19T03:21:50;1.10;;;1.10;;
7573;SDS011;3828;48.922;9.116;2023-11-19T03:24:17;1.20;;;1.20;;
7573;SDS011;3828;48.922;9.116;2023-11-19T03:26:47;1.30;;;1.30;;
7573;SDS011;3828;48.922;9.116;2023-11-19T03:29:15;1.20;;;1.20;;
7573;SDS011;3828;48.922;9.116;2023-11-19T03:31:42;1.30;;;1.30;;
7573;SDS011;3828;48.922;9.116;2023-11-19T03:34:09;1.30;;;1.30;;
7573;SDS011;3828;48.922;9.116;2023-11-19T03:36:36;1.33;;;1.33;;
7573;SDS011;3828;48.922;9.116;2023-11-19T03:39:06;1.23;;;1.23;;
7573;SDS011;3828;48.922;9.116;2023-11-19T03:41:33;1.20;;;1.20;;
7573;SDS011;3828;48.922;9.116;2023-11-19T03:44:00;1.43;;;1.43;;
7573;SDS011;3828;48.922;9.116;2023-11-19T03:46:27;1.47;;;1.47;;
7573;SDS011;3828;48.922;9.116;2023-11-19T03:48:55;1.30;;;1.30;;
7573;SDS011;3828;48.922;9.116;2023-11-19T03:51:22;1.10;;;1.10;;
7573;SDS011;3828;48.922;9.116;2023-11-19T03:53:49;1.33;;;1.33;;
7573;SDS011;3828;48.922;9.116;2023-11-19T03:56:17;1.13;;;1.13;;
7573;SDS011;3828;48.922;9.116;2023-11-19T03:58:46;1.33;;;1.33;;
7573;SDS011;3828;48.922;9.116;2023-11-19T04:01:13;1.30;;;1.30;;
7573;SDS011;3828;48.922;9.116;2023-11-19T04:03:40;1.10;;;1.10;;
7573;SDS011;3828;48.922;9.116;2023-11-19T04:06:09;1.20;;;1.20;;
7573;SDS011;3828;48.922;9.116;2023-11-19T04:08:36;1.20;;;1.20;;
7573;SDS011;3828;48.922;9.116;2023-11-19T04:11:03;1.20;;;1.20;;
7573;SDS011;3828;48.922;9.116;2023-11-19T04:13:32;1.17;;;1.17;;
7573;SDS011;3828;48.922;9.116;2023-11-19T04:15:59;1.20;;;1.20;;
7573;SDS011;3828;48.922;9.116;2023-11-19T04:18:26;1.10;;;1.10;;
7573;SDS011;3828;48.922;9.116;2023-11-19T04:20:54;1.23;;;1.23;;
7573;SDS011;3828;48.922;9.116;2023-11-19T04:23:22;1.10;;;1.10;;
7573;SDS011;3828;48.922;9.116;2023-11-19T04:25:50;1.10;;;1.10;;
7573;SDS011;3828;48.922;9.116;2023-11-19T04:28:17;1.00;;;1.00;;
7573;SDS011;3828;48.922;9.116;2023-11-19T04:30:46;1.03;;;1.03;;
7573;SDS011;3828;48.922;9.116;2023-11-19T04:33:12;1.10;;;1.10;;
7573;SDS011;3828;48.922;9.116;2023-11-19T04:35:40;1.10;;;1.10;;
7573;SDS011;3828;48.922;9.116;2023-11-19T04:38:07;1.20;;;1.20;;
7573;SDS011;3828;48.922;9.116;2023-11-19T04:40:34;1.00;;;1.00;;
7573;SDS011;3828;48.922;9.116;2023-11-19T04:43:03;1.10;;;1.10;;
7573;SDS011;3828;48.922;9.116;2023-11-19T04:45:30;1.00;;;1.00;;
7573;SDS011;3828;48.922;9.116;2023-11-19T04:47:59;1.00;;;1.00;;
7573;SDS011;3828;48.922;9.116;2023-11-19T04:50:26;1.20;;;1.20;;
7573;SDS011;3828;48.922;9.116;2023-11-19T04:52:53;1.10;;;1.10;;
7573;SDS011;3828;48.922;9.116;2023-11-19T04:55:21;1.10;;;1.10;;
7573;SDS011;3828;48.922;9.116;2023-11-19T04:57:48;1.10;;;1.10;;
7573;SDS011;3828;48.922;9.116;2023-11-19T05:00:15;1.20;;;1.20;;
7573;SDS011;3828;48.922;9.116;2023-11-19T05:02:42;1.20;;;1.20;;
7573;SDS011;3828;48.922;9.116;2023-11-19T05:05:10;1.03;;;1.03;;
7573;SDS011;3828;48.922;9.116;2023-11-19T05:07:37;1.20;;;1.20;;
7573;SDS011;3828;48.922;9.116;2023-11-19T05:10:05;1.30;;;1.30;;
7573;SDS011;3828;48.922;9.116;2023-11-19T05:12:32;1.23;;;1.23;;
7573;SDS011;3828;48.922;9.116;2023-11-19T05:15:01;1.30;;;1.30;;
7573;SDS011;3828;48.922;9.116;2023-11-19T05:17:28;1.10;;;1.10;;
7573;SDS011;3828;48.922;9.116;2023-11-19T05:19:55;1.20;;;1.20;;
7573;SDS011;3828;48.922;9.116;2023-11-19T05:22:24;1.00;;;1.00;;
7573;SDS011;3828;48.922;9.116;2023-11-19T05:24:51;1.30;;;1.30;;
7573;SDS011;3828;48.922;9.116;2023-11-19T05:27:18;1.00;;;1.00;;
7573;SDS011;3828;48.922;9.116;2023-11-19T05:29:45;1.10;;;1.10;;
7573;SDS011;3828;48.922;9.116;2023-11-19T05:32:12;1.10;;;1.10;;
7573;SDS011;3828;48.922;9.116;2023-11-19T05:34:39;1.07;;;1.07;;
7573;SDS011;3828;48.922;9.116;2023-11-19T05:37:06;1.00;;;1.00;;
7573;SDS011;3828;48.922;9.116;2023-11-19T05:39:37;1.20;;;1.20;;
7573;SDS011;3828;48.922;9.116;2023-11-19T05:42:04;1.10;;;1.10;;
7573;SDS011;3828;48.922;9.116;2023-11-19T05:44:31;1.20;;;1.20;;
7573;SDS011;3828;48.922;9.116;2023-11-19T05:46:57;1.10;;;1.10;;
7573;SDS011;3828;48.922;9.116;2023-11-19T05:49:25;1.30;;;1.30;;
7573;SDS011;3828;48.922;9.116;2023-11-19T05:51:52;1.00;;;1.00;;
7573;SDS011;3828;48.922;9.116;2023-11-19T05:54:20;1.10;;;1.10;;
7573;SDS011;3828;48.922;9.116;2023-11-19T05:56:50;1.03;;;1.03;;
7573;SDS011;3828;48.922;9.116;2023-11-19T05:59:19;0.97;;;0.97;;
7573;SDS011;3828;48.922;9.116;2023-11-19T06:01:47;1.00;;;1.00;;
7573;SDS011;3828;48.922;9.116;2023-11-19T06:04:15;1.10;;;1.10;;
7573;SDS011;3828;48.922;9.116;2023-11-19T06:06:42;1.10;;;1.10;;
7573;SDS011;3828;48.922;9.116;2023-11-19T06:09:11;1.10;;;1.10;;
7573;SDS011;3828;48.922;9.116;2023-11-19T06:11:38;1.40;;;1.40;;
7573;SDS011;3828;48.922;9.116;2023-11-19T06:14:07;1.10;;;1.10;;
7573;SDS011;3828;48.922;9.116;2023-11-19T06:16:34;1.07;;;1.07;;
7573;SDS011;3828;48.922;9.116;2023-11-19T06:19:01;1.40;;;1.40;;
7573;SDS011;3828;48.922;9.116;2023-11-19T06:21:29;0.93;;;0.93;;
7573;SDS011;3828;48.922;9.116;2023-11-19T06:23:56;1.27;;;1.27;;
7573;SDS011;3828;48.922;9.116;2023-11-19T06:26:24;0.90;;;0.90;;
7573;SDS011;3828;48.922;9.116;2023-11-19T06:28:51;1.00;;;1.00;;
7573;SDS011;3828;48.922;9.116;2023-11-19T06:31:20;1.00;;;1.00;;
7573;SDS011;3828;48.922;9.116;2023-11-19T06:33:47;1.10;;;1.10;;
7573;SDS011;3828;48.922;9.116;2023-11-19T06:36:16;1.00;;;1.00;;
7573;SDS011;3828;48.922;9.116;2023-11-19T06:38:45;1.07;;;1.07;;
7573;SDS011;3828;48.922;9.116;2023-11-19T06:41:12;1.07;;;1.07;;
7573;SDS011;3828;48.922;9.116;2023-11-19T06:43:40;1.00;;;1.00;;
7573;SDS011;3828;48.922;9.116;2023-11-19T06:46:14;1.10;;;1.10;;
7573;SDS011;3828;48.922;9.116;2023-11-19T06:48:42;0.90;;;0.90;;
7573;SDS011;3828;48.922;9.116;2023-11-19T06:51:10;1.20;;;1.20;;
7573;SDS011;3828;48.922;9.116;2023-11-19T06:53:37;1.10;;;1.10;;
7573;SDS011;3828;48.922;9.116;2023-11-19T06:56:04;1.03;;;1.03;;
7573;SDS011;3828;48.922;9.116;2023-11-19T06:58:35;1.13;;;1.13;;
7573;SDS011;3828;48.922;9.116;2023-11-19T07:01:02;1.30;;;1.30;;
7573;SDS011;3828;48.922;9.116;2023-11-19T07:03:30;1.07;;;1.07;;
7573;SDS011;3828;48.922;9.116;2023-11-19T07:05:58;1.23;;;1.23;;
7573;SDS011;3828;48.922;9.116;2023-11-19T07:08:25;1.00;;;1.00;;
7573;SDS011;3828;48.922;9.116;2023-11-19T07:10:52;1.10;;;1.10;;
7573;SDS011;3828;48.922;9.116;2023-11-19T07:13:19;1.00;;;1.00;;
7573;SDS011;3828;48.922;9.116;2023-11-19T07:15:46;1.00;;;1.00;;
7573;SDS011;3828;48.922;9.116;2023-11-19T07:18:13;1.00;;;1.00;;
7573;SDS011;3828;48.922;9.116;2023-11-19T07:20:41;1.27;;;1.27;;
7573;SDS011;3828;48.922;9.116;2023-11-19T07:23:10;1.00;;;1.00;;
7573;SDS011;3828;48.922;9.116;2023-11-19T07:25:37;1.30;;;1.30;;
7573;SDS011;3828;48.922;9.116;2023-11-19T07:28:04;1.00;;;1.00;;
7573;SDS011;3828;48.922;9.116;2023-11-19T07:30:32;1.10;;;1.10;;
7573;SDS011;3828;48.922;9.116;2023-11-19T07:33:01;1.00;;;1.00;;
7573;SDS011;3828;48.922;9.116;2023-11-19T07:35:29;1.00;;;1.00;;
7573;SDS011;3828;48.922;9.116;2023-11-19T07:37:56;0.90;;;0.90;;
7573;SDS011;3828;48.922;9.116;2023-11-19T07:40:24;1.00;;;1.00;;
7573;SDS011;3828;48.922;9.116;2023-11-19T07:42:51;1.00;;;1.00;;
7573;SDS011;3828;48.922;9.116;2023-11-19T07:45:19;1.00;;;1.00;;
7573;SDS011;3828;48.922;9.116;2023-11-19T07:47:46;1.20;;;1.20;;
7573;SDS011;3828;48.922;9.116;2023-11-19T07:50:13;1.10;;;1.10;;
7573;SDS011;3828;48.922;9.116;2023-11-19T07:52:42;0.97;;;0.97;;
7573;SDS011;3828;48.922;9.116;2023-11-19T07:55:09;1.10;;;1.10;;
7573;SDS011;3828;48.922;9.116;2023-11-19T07:57:38;1.10;;;1.10;;
7573;SDS011;3828;48.922;9.116;2023-11-19T08:00:05;1.10;;;1.10;;
7573;SDS011;3828;48.922;9.116;2023-11-19T08:02:37;1.10;;;1.10;;
7573;SDS011;3828;48.922;9.116;2023-11-19T08:05:04;1.00;;;1.00;;
7573;SDS011;3828;48.922;9.116;2023-11-19T08:07:32;1.03;;;1.03;;
7573;SDS011;3828;48.922;9.116;2023-11-19T08:09:59;1.20;;;1.20;;
7573;SDS011;3828;48.922;9.116;2023-11-19T08:12:26;1.10;;;1.10;;
7573;SDS011;3828;48.922;9.116;2023-11-19T08:14:54;1.00;;;1.00;;
7573;SDS011;3828;48.922;9.116;2023-11-19T08:17:23;1.20;;;1.20;;
7573;SDS011;3828;48.922;9.116;2023-11-19T08:19:50;1.00;;;1.00;;
7573;SDS011;3828;48.922;9.116;2023-11-19T08:22:17;1.10;;;1.10;;
7573;SDS011;3828;48.922;9.116;2023-11-19T08:24:45;1.33;;;1.33;;
7573;SDS011;3828;48.922;9.116;2023-11-19T08:27:11;1.00;;;1.00;;
7573;SDS011;3828;48.922;9.116;2023-11-19T08:29:38;1.00;;;1.00;;
7573;SDS011;3828;48.922;9.116;2023-11-19T08:32:07;1.00;;;1.00;;
7573;SDS011;3828;48.922;9.116;2023-11-19T08:34:37;1.00;;;1.00;;
7573;SDS011;3828;48.922;9.116;2023-11-19T08:37:05;1.00;;;1.00;;
7573;SDS011;3828;48.922;9.116;2023-11-19T08:39:32;1.00;;;1.00;;
7573;SDS011;3828;48.922;9.116;2023-11-19T08:42:00;1.00;;;1.00;;
7573;SDS011;3828;48.922;9.116;2023-11-19T08:44:27;1.13;;;1.13;;
7573;SDS011;3828;48.922;9.116;2023-11-19T08:46:54;1.00;;;1.00;;
7573;SDS011;3828;48.922;9.116;2023-11-19T08:49:22;1.00;;;1.00;;
7573;SDS011;3828;48.922;9.116;2023-11-19T08:51:49;0.90;;;0.90;;
7573;SDS011;3828;48.922;9.116;2023-11-19T08:54:16;1.00;;;1.00;;
7573;SDS011;3828;48.922;9.116;2023-11-19T08:56:45;0.97;;;0.97;;
7573;SDS011;3828;48.922;9.116;2023-11-19T08:59:12;1.00;;;1.00;;
7573;SDS011;3828;48.922;9.116;2023-11-19T09:01:40;0.90;;;0.90;;
7573;SDS011;3828;48.922;9.116;2023-11-19T09:04:07;1.00;;;1.00;;
7573;SDS011;3828;48.922;9.116;2023-11-19T09:06:36;1.00;;;1.00;;
7573;SDS011;3828;48.922;9.116;2023-11-19T09:09:03;0.93;;;0.93;;
7573;SDS011;3828;48.922;9.116;2023-11-19T09:11:30;0.83;;;0.83;;
7573;SDS011;3828;48.922;9.116;2023-11-19T09:13:58;0.80;;;0.80;;
7573;SDS011;3828;48.922;9.116;2023-11-19T09:16:24;0.60;;;0.60;;
7573;SDS011;3828;48.922;9.116;2023-11-19T09:18:51;1.00;;;1.00;;
7573;SDS011;3828;48.922;9.116;2023-11-19T09:21:18;0.80;;;0.80;;
7573;SDS011;3828;48.922;9.116;2023-11-19T09:23:47;1.00;;;1.00;;
7573;SDS011;3828;48.922;9.116;2023-11-19T09:26:14;0.70;;;0.70;;
7573;SDS011;3828;48.922;9.116;2023-11-19T09:28:42;1.13;;;1.13;;
7573;SDS011;3828;48.922;9.116;2023-11-19T09:31:12;0.80;;;0.80;;
7573;SDS011;3828;48.922;9.116;2023-11-19T09:33:39;1.07;;;1.07;;
7573;SDS011;3828;48.922;9.116;2023-11-19T09:36:07;0.83;;;0.83;;
7573;SDS011;3828;48.922;9.116;2023-11-19T09:38:36;1.10;;;1.10;;
7573;SDS011;3828;48.922;9.116;2023-11-19T09:41:05;0.90;;;0.90;;
7573;SDS011;3828;48.922;9.116;2023-11-19T09:43:33;1.23;;;1.23;;
7573;SDS011;3828;48.922;9.116;2023-11-19T09:46:01;0.80;;;0.80;;
7573;SDS011;3828;48.922;9.116;2023-11-19T09:48:32;1.00;;;1.00;;
7573;SDS011;3828;48.922;9.116;2023-11-19T09:51:02;0.90;;;0.90;;
7573;SDS011;3828;48.922;9.116;2023-11-19T09:53:29;0.90;;;0.90;;
7573;SDS011;3828;48.922;9.116;2023-11-19T09:55:56;0.70;;;0.70;;
7573;SDS011;3828;48.922;9.116;2023-11-19T09:58:29;0.70;;;0.70;;
7573;SDS011;3828;48.922;9.116;2023-11-19T10:00:56;0.70;;;0.70;;
7573;SDS011;3828;48.922;9.116;2023-11-19T10:03:24;0.67;;;0.67;;
7573;SDS011;3828;48.922;9.116;2023-11-19T10:05:51;0.70;;;0.70;;
7573;SDS011;3828;48.922;9.116;2023-11-19T10:08:19;0.67;;;0.67;;
7573;SDS011;3828;48.922;9.116;2023-11-19T10:10:47;0.70;;;0.70;;
7573;SDS011;3828;48.922;9.116;2023-11-19T10:13:14;0.70;;;0.70;;
7573;SDS011;3828;48.922;9.116;2023-11-19T10:15:43;0.83;;;0.83;;
7573;SDS011;3828;48.922;9.116;2023-11-19T10:18:10;0.70;;;0.70;;
7573;SDS011;3828;48.922;9.116;2023-11-19T10:20:37;0.90;;;0.90;;
7573;SDS011;3828;48.922;9.116;2023-11-19T10:23:04;0.70;;;0.70;;
7573;SDS011;3828;48.922;9.116;2023-11-19T10:25:32;1.03;;;1.03;;
7573;SDS011;3828;48.922;9.116;2023-11-19T10:27:59;0.80;;;0.80;;
7573;SDS011;3828;48.922;9.116;2023-11-19T10:30:27;0.90;;;0.90;;
7573;SDS011;3828;48.922;9.116;2023-11-19T10:35:52;0.90;;;0.90;;
7573;SDS011;3828;48.922;9.116;2023-11-19T10:38:19;0.90;;;0.90;;
7573;SDS011;3828;48.922;9.116;2023-11-19T10:40:47;0.80;;;0.80;;
7573;SDS011;3828;48.922;9.116;2023-11-19T10:43:14;0.93;;;0.93;;
7573;SDS011;3828;48.922;9.116;2023-11-19T10:45:41;0.70;;;0.70;;
7573;SDS011;3828;48.922;9.116;2023-11-19T10:48:07;1.00;;;1.00;;
7573;SDS011;3828;48.922;9.116;2023-11-19T10:50:36;0.80;;;0.80;;
7573;SDS011;3828;48.922;9.116;2023-11-19T10:53:04;0.90;;;0.90;;
7573;SDS011;3828;48.922;9.116;2023-11-19T10:55:33;0.70;;;0.70;;
7573;SDS011;3828;48.922;9.116;2023-11-19T10:58:01;0.97;;;0.97;;
7573;SDS011;3828;48.922;9.116;2023-11-19T11:00:29;0.80;;;0.80;;
7573;SDS011;3828;48.922;9.116;2023-11-19T11:03:00;0.90;;;0.90;;
7573;SDS011;3828;48.922;9.116;2023-11-19T11:05:28;0.83;;;0.83;;
7573;SDS011;3828;48.922;9.116;2023-11-19T11:07:59;0.80;;;0.80;;
7573;SDS011;3828;48.922;9.116;2023-11-19T11:10:27;0.80;;;0.80;;
7573;SDS011;3828;48.922;9.116;2023-11-19T11:12:58;1.00;;;1.00;;
7573;SDS011;3828;48.922;9.116;2023-11-19T11:15:29;0.80;;;0.80;;
7573;SDS011;3828;48.922;9.116;2023-11-19T11:17:59;0.83;;;0.83;;
7573;SDS011;3828;48.922;9.116;2023-11-19T11:20:27;1.10;;;1.10;;
7573;SDS011;3828;48.922;9.116;2023-11-19T11:22:59;0.80;;;0.80;;
7573;SDS011;3828;48.922;9.116;2023-11-19T11:25:51;0.90;;;0.90;;
7573;SDS011;3828;48.922;9.116;2023-11-19T11:28:28;0.80;;;0.80;;
7573;SDS011;3828;48.922;9.116;2023-11-19T11:31:08;0.90;;;0.90;;
7573;SDS011;3828;48.922;9.116;2023-11-19T11:34:00;1.03;;;1.03;;
7573;SDS011;3828;48.922;9.116;2023-11-19T11:36:53;1.10;;;1.10;;
7573;SDS011;3828;48.922;9.116;2023-11-19T11:39:32;0.80;;;0.80;;
7573;SDS011;3828;48.922;9.116;2023-11-19T11:45:00;0.80;;;0.80;;
7573;SDS011;3828;48.922;9.116;2023-11-19T11:50:36;1.30;;;1.30;;
7573;SDS011;3828;48.922;9.116;2023-11-19T11:53:18;1.07;;;1.07;;
7573;SDS011;3828;48.922;9.116;2023-11-19T11:55:57;0.80;;;0.80;;
7573;SDS011;3828;48.922;9.116;2023-11-19T11:58:31;1.00;;;1.00;;
7573;SDS011;3828;48.922;9.116;2023-11-19T12:01:01;0.90;;;0.90;;
7573;SDS011;3828;48.922;9.116;2023-11-19T12:03:30;0.80;;;0.80;;
7573;SDS011;3828;48.922;9.116;2023-11-19T12:05:58;0.90;;;0.90;;
7573;SDS011;3828;48.922;9.116;2023-11-19T12:08:26;0.80;;;0.80;;
7573;SDS011;3828;48.922;9.116;2023-11-19T12:10:56;0.90;;;0.90;;
7573;SDS011;3828;48.922;9.116;2023-11-19T12:13:24;0.80;;;0.80;;
7573;SDS011;3828;48.922;9.116;2023-11-19T12:16:08;0.90;;;0.90;;
7573;SDS011;3828;48.922;9.116;2023-11-19T12:18:36;0.80;;;0.80;;
7573;SDS011;3828;48.922;9.116;2023-11-19T12:21:05;0.90;;;0.90;;
7573;SDS011;3828;48.922;9.116;2023-11-19T12:23:34;0.80;;;0.80;;
7573;SDS011;3828;48.922;9.116;2023-11-19T12:26:03;0.83;;;0.83;;
7573;SDS011;3828;48.922;9.116;2023-11-19T12:28:30;0.90;;;0.90;;
7573;SDS011;3828;48.922;9.116;2023-11-19T12:31:07;0.90;;;0.90;;
7573;SDS011;3828;48.922;9.116;2023-11-19T12:33:35;1.10;;;1.10;;
7573;SDS011;3828;48.922;9.116;2023-11-19T12:36:03;0.80;;;0.80;;
7573;SDS011;3828;48.922;9.116;2023-11-19T12:38:30;0.83;;;0.83;;
7573;SDS011;3828;48.922;9.116;2023-11-19T12:41:05;0.90;;;0.90;;
7573;SDS011;3828;48.922;9.116;2023-11-19T12:43:33;0.90;;;0.90;;
7573;SDS011;3828;48.922;9.116;2023-11-19T12:46:01;0.90;;;0.90;;
7573;SDS011;3828;48.922;9.116;2023-11-19T12:48:28;0.83;;;0.83;;
7573;SDS011;3828;48.922;9.116;2023-11-19T12:50:55;0.90;;;0.90;;
7573;SDS011;3828;48.922;9.116;2023-11-19T12:53:25;1.00;;;1.00;;
7573;SDS011;3828;48.922;9.116;2023-11-19T12:55:53;0.80;;;0.80;;
7573;SDS011;3828;48.922;9.116;2023-11-19T12:58:31;0.90;;;0.90;;
7573;SDS011;3828;48.922;9.116;2023-11-19T13:01:00;1.17;;;1.17;;
7573;SDS011;3828;48.922;9.116;2023-11-19T13:03:30;0.80;;;0.80;;
7573;SDS011;3828;48.922;9.116;2023-11-19T13:06:03;1.10;;;1.10;;
7573;SDS011;3828;48.922;9.116;2023-11-19T13:08:36;0.83;;;0.83;;
7573;SDS011;3828;48.922;9.116;2023-11-19T13:11:04;1.13;;;1.13;;
7573;SDS011;3828;48.922;9.116;2023-11-19T13:13:49;0.87;;;0.87;;
7573;SDS011;3828;48.922;9.116;2023-11-19T13:16:19;0.80;;;0.80;;
7573;SDS011;3828;48.922;9.116;2023-11-19T13:18:47;0.90;;;0.90;;
7573;SDS011;3828;48.922;9.116;2023-11-19T13:21:14;0.90;;;0.90;;
7573;SDS011;3828;48.922;9.116;2023-11-19T13:23:41;0.90;;;0.90;;
7573;SDS011;3828;48.922;9.116;2023-11-19T13:26:08;0.90;;;0.90;;
7573;SDS011;3828;48.922;9.116;2023-11-19T13:28:37;0.80;;;0.80;;
7573;SDS011;3828;48.922;9.116;2023-11-19T13:31:04;0.90;;;0.90;;
7573;SDS011;3828;48.922;9.116;2023-11-19T13:33:32;0.90;;;0.90;;
7573;SDS011;3828;48.922;9.116;2023-11-19T13:36:01;0.93;;;0.93;;
7573;SDS011;3828;48.922;9.116;2023-11-19T13:38:32;0.80;;;0.80;;
7573;SDS011;3828;48.922;9.116;2023-11-19T13:41:00;0.90;;;0.90;;
7573;SDS011;3828;48.922;9.116;2023-11-19T13:43:27;1.00;;;1.00;;
7573;SDS011;3828;48.922;9.116;2023-11-19T13:45:56;0.90;;;0.90;;
7573;SDS011;3828;48.922;9.116;2023-11-19T13:48:23;0.90;;;0.90;;
7573;SDS011;3828;48.922;9.116;2023-11-19T13:50:51;0.93;;;0.93;;
7573;SDS011;3828;48.922;9.116;2023-11-19T13:53:18;0.90;;;0.90;;
7573;SDS011;3828;48.922;9.116;2023-11-19T13:55:45;0.93;;;0.93;;
7573;SDS011;3828;48.922;9.116;2023-11-19T13:58:13;1.07;;;1.07;;
7573;SDS011;3828;48.922;9.116;2023-11-19T14:00:40;0.93;;;0.93;;
7573;SDS011;3828;48.922;9.116;2023-11-19T14:03:09;0.97;;;0.97;;
7573;SDS011;3828;48.922;9.116;2023-11-19T14:05:40;0.80;;;0.80;;
7573;SDS011;3828;48.922;9.116;2023-11-19T14:08:07;1.00;;;1.00;;
7573;SDS011;3828;48.922;9.116;2023-11-19T14:10:36;0.80;;;0.80;;
7573;SDS011;3828;48.922;9.116;2023-11-19T14:13:05;0.90;;;0.90;;
7573;SDS011;3828;48.922;9.116;2023-11-19T14:15:32;0.80;;;0.80;;
7573;SDS011;3828;48.922;9.116;2023-11-19T14:18:00;0.93;;;0.93;;
7573;SDS011;3828;48.922;9.116;2023-11-19T14:20:29;1.00;;;1.00;;
7573;SDS011;3828;48.922;9.116;2023-11-19T14:22:56;0.90;;;0.90;;
7573;SDS011;3828;48.922;9.116;2023-11-19T14:25:23;0.90;;;0.90;;
7573;SDS011;3828;48.922;9.116;2023-11-19T14:27:50;0.90;;;0.90;;
7573;SDS011;3828;48.922;9.116;2023-11-19T14:30:17;1.00;;;1.00;;
7573;SDS011;3828;48.922;9.116;2023-11-19T14:32:44;0.90;;;0.90;;
7573;SDS011;3828;48.922;9.116;2023-11-19T14:35:13;0.97;;;0.97;;
7573;SDS011;3828;48.922;9.116;2023-11-19T14:37:42;0.90;;;0.90;;
7573;SDS011;3828;48.922;9.116;2023-11-19T14:40:09;1.00;;;1.00;;
7573;SDS011;3828;48.922;9.116;2023-11-19T14:42:37;0.80;;;0.80;;
7573;SDS011;3828;48.922;9.116;2023-11-19T14:45:05;1.07;;;1.07;;
7573;SDS011;3828;48.922;9.116;2023-11-19T14:47:32;0.80;;;0.80;;
7573;SDS011;3828;48.922;9.116;2023-11-19T14:50:00;1.00;;;1.00;;
7573;SDS011;3828;48.922;9.116;2023-11-19T14:52:28;0.90;;;0.90;;
7573;SDS011;3828;48.922;9.116;2023-11-19T14:54:56;1.23;;;1.23;;
7573;SDS011;3828;48.922;9.116;2023-11-19T14:57:23;0.90;;;0.90;;
7573;SDS011;3828;48.922;9.116;2023-11-19T14:59:50;1.00;;;1.00;;
7573;SDS011;3828;48.922;9.116;2023-11-19T15:02:17;1.00;;;1.00;;
7573;SDS011;3828;48.922;9.116;2023-11-19T15:04:44;0.90;;;0.90;;
7573;SDS011;3828;48.922;9.116;2023-11-19T15:07:11;0.90;;;0.90;;
7573;SDS011;3828;48.922;9.116;2023-11-19T15:09:38;0.90;;;0.90;;
7573;SDS011;3828;48.922;9.116;2023-11-19T15:12:07;0.90;;;0.90;;
7573;SDS011;3828;48.922;9.116;2023-11-19T15:14:34;0.90;;;0.90;;
7573;SDS011;3828;48.922;9.116;2023-11-19T15:17:01;1.00;;;1.00;;
7573;SDS011;3828;48.922;9.116;2023-11-19T15:19:29;0.90;;;0.90;;
7573;SDS011;3828;48.922;9.116;2023-11-19T15:21:56;0.83;;;0.83;;
7573;SDS011;3828;48.922;9.116;2023-11-19T15:24:23;0.90;;;0.90;;
7573;SDS011;3828;48.922;9.116;2023-11-19T15:26:51;0.90;;;0.90;;
7573;SDS011;3828;48.922;9.116;2023-11-19T15:29:19;0.90;;;0.90;;
7573;SDS011;3828;48.922;9.116;2023-11-19T15:31:48;1.00;;;1.00;;